Urb Los Maestros, Puerto Rico
Current Conditions -  °F | °C
As of 1:50 PM on Monday 20 Oct 2014 (Local Time) from TJBQ Reporting Station
Scattered Clouds Scattered Clouds  
Wind Chill: 88°   Ceiling: Unl
Heat Index: 98°   Visibility: 10mi
Dew Point: 75°   Wind: 14mph
Humidity: 66%   Direction: 60°ENE
Pressure: 29.94"   Gusts: NA
Location:  18.0055°N, 66.6209°W
Report Text: TJBQ 201750Z 06012KT 10SM SCT030 31/24 A2994 RMK RWY 8 ATIS K
Loading
Personal Weather Stations






























Interactive Weather Map
Tropical Storm Tracking
New forecast layout! Learn more

10-Day Weather Forecast

Advertisements
Track Severe Weather on mobile